world map with TIR marked

TIR - Airport

This information may not be accurate or current and is not valid for navigation or flight planning. No warranty of fitness for any purpose is made or implied.

flag of India

Donate via PayPal

Additional information is available on the NEW Great Circle Mapper

Location
City:  Tirupati, Andhra Pradesh, India
Name:Tirupati Airport
ICAO / IATA:VOTP / TIR

Details
Type:Airport (Aerodrome, Airfield)
Latitude:13°37'57"N (13.632492)
Longitude:79°32'36"E (79.543256)
Datum:WGS 1984
Elevation:350 ft (107 m)
Runways:1
Longest:7500 × 148 ft (2286 × 45 m)

Time
Timezone:UTC+5:30 (DST+7:30)
Local Time:

Weather
METAR:VOTP  181400Z 07003KT 4000 HZ FEW020 25/18 Q1016
TAF:VOTP  (expired)

Related Locations
Nearby:
Farthest:SEII: 11349 mi / 18264 km
Puerto Villamil [General Villamil], Isabela Island, W, EC

Find:

   beyond  
but within

Other Information
Maps:
Links:
Sources:

  


 


Great Circle Mapper   Great Circle Mapper
Great Circle Mapper FAQ   Great Circle Mapper FAQ
  Karl's Home Page
KLSē   KLSē Home
   GC on Facebook
Airlines of the World   Airlines of the World
Donate via PayPal


Copyright © 2004-2017, Karl L. Swartz. All rights reserved.
All trademarks mentioned herein belong to their respective owners.

Please see credits for attribution and copyright information.

Karl Swartz <karl@kls2.com>
  Powered by FreeBSD
Valid HTML 4.01!
Labeled with ICRA
hCard Microformat
Geo Microformat